Time;durP1;ratioP1;P1;durP2;ratioP2;P2;SDS_P1;SDS_P2;PMS_P1;PMS_P2;Temp;Humidity;BMP_temperature;BMP_pressure;BME280_temperature;BME280_humidity;BME280_pressure;Samples;Min_cycle;Max_cycle;Signal;HPM_P1;HPM_P2
2021/08/05 00:00:52;;;;;;;16.10;13.53;;;;;;;12.89;78.26;99206.07;532585;1088;116583;-64
2021/08/05 00:10:59;;;;;;;15.30;13.70;;;;;;;12.78;77.86;99199.97;531867;1089;116730;-64
2021/08/05 00:21:06;;;;;;;12.43;11.17;;;;;;;12.70;77.63;99192.69;532567;1089;116866;-63
2021/08/05 00:31:12;;;;;;;12.27;10.97;;;;;;;12.65;77.83;99187.78;532612;1088;116043;-63
2021/08/05 00:41:20;;;;;;;12.17;10.90;;;;;;;12.60;77.55;99188.14;531815;1089;116676;-63
2021/08/05 00:51:26;;;;;;;13.63;12.23;;;;;;;12.56;78.17;99172.70;532533;1089;116325;-63
2021/08/05 01:01:38;;;;;;;13.57;12.27;;;;;;;12.52;77.89;99176.55;531822;1089;118101;-64
2021/08/05 01:11:51;;;;;;;14.70;13.28;;;;;;;12.54;78.31;99164.94;532527;1089;116814;-63
2021/08/05 01:22:05;;;;;;;12.27;11.17;;;;;;;12.69;79.34;99148.86;532571;1089;116740;-64
2021/08/05 01:32:12;;;;;;;16.67;14.97;;;;;;;12.66;79.22;99149.12;531785;1088;117820;-64
2021/08/05 01:42:21;;;;;;;16.33;14.83;;;;;;;12.80;79.81;99137.45;532519;1088;117136;-64
2021/08/05 01:52:28;;;;;;;18.87;17.17;;;;;;;12.96;80.35;99140.53;531826;1089;117152;-65
2021/08/05 02:02:36;;;;;;;19.27;17.50;;;;;;;13.10;80.62;99143.84;532630;1088;117654;-64
2021/08/05 02:12:54;;;;;;;19.60;17.08;;;;;;;13.25;80.89;99149.66;532612;1089;116997;-64
2021/08/05 02:23:01;;;;;;;20.80;18.65;;;;;;;13.33;81.18;99144.56;531842;1089;117285;-64
2021/08/05 02:33:08;;;;;;;19.40;17.10;;;;;;;13.40;81.37;99134.37;532249;1088;117282;-65
2021/08/05 02:43:16;;;;;;;20.27;18.00;;;;;;;13.39;81.71;99122.97;532589;1089;116423;-65
2021/08/05 02:53:24;;;;;;;19.95;18.05;;;;;;;13.53;82.17;99113.94;531809;1088;117624;-65
2021/08/05 03:03:30;;;;;;;21.97;14.77;;;;;;;13.76;82.37;99105.03;532597;1089;117481;-65
2021/08/05 03:13:38;;;;;;;19.60;15.70;;;;;;;13.94;82.31;99095.55;531810;1090;117102;-64
2021/08/05 03:23:44;;;;;;;15.37;13.83;;;;;;;14.07;82.61;99105.04;532596;1089;116590;-65
2021/08/05 03:33:52;;;;;;;14.03;12.53;;;;;;;14.26;82.48;99099.84;532574;1089;117429;-64
2021/08/05 03:43:59;;;;;;;17.97;15.20;;;;;;;14.33;82.30;99094.85;531783;1089;116725;-64
2021/08/05 03:54:06;;;;;;;16.23;13.93;;;;;;;14.34;82.35;99093.88;532608;1088;117049;-64
2021/08/05 04:04:13;;;;;;;15.90;14.23;;;;;;;14.47;82.13;99095.44;532561;1090;116591;-64
2021/08/05 04:14:20;;;;;;;13.73;11.90;;;;;;;14.57;82.23;99091.01;531799;1088;116547;-64
2021/08/05 04:24:27;;;;;;;12.57;11.47;;;;;;;14.80;82.02;99096.08;532359;1089;117342;-65
2021/08/05 04:34:34;;;;;;;13.67;12.20;;;;;;;15.13;81.51;99110.68;531660;1088;116602;-64
2021/08/05 04:44:41;;;;;;;12.80;10.93;;;;;;;15.34;81.21;99085.89;532492;1090;116813;-63
2021/08/05 04:54:48;;;;;;;13.63;11.17;;;;;;;15.52;81.34;99093.08;532610;1089;116823;-63
2021/08/05 05:04:54;;;;;;;11.85;10.85;;;;;;;15.61;80.81;99086.94;531788;1089;116785;-65
2021/08/05 05:15:01;;;;;;;12.57;11.40;;;;;;;15.70;80.39;99077.33;532606;1088;116553;-64
2021/08/05 05:25:13;;;;;;;10.53;9.43;;;;;;;15.75;80.10;99063.63;532365;1090;116933;-64
2021/08/05 05:35:21;;;;;;;11.20;10.20;;;;;;;15.70;79.86;99064.09;531768;1088;117035;-64
2021/08/05 05:45:29;;;;;;;12.53;11.25;;;;;;;15.67;79.76;99064.36;532573;1089;117123;-65
2021/08/05 05:55:39;;;;;;;14.23;12.85;;;;;;;15.65;79.54;99069.81;531742;1089;116872;-65
2021/08/05 06:05:46;;;;;;;14.93;13.43;;;;;;;15.66;79.62;99055.61;532616;1088;116360;-63
2021/08/05 06:15:53;;;;;;;17.93;15.80;;;;;;;15.77;79.30;99059.05;532577;1089;116781;-64
2021/08/05 06:25:59;;;;;;;22.10;19.40;;;;;;;16.02;79.11;99043.50;531884;1089;116622;-64
2021/08/05 06:36:07;;;;;;;22.13;19.97;;;;;;;16.28;78.71;99042.80;532504;1090;116443;-64
2021/08/05 06:46:14;;;;;;;18.03;16.13;;;;;;;16.45;78.01;99034.05;532521;1089;116712;-63
2021/08/05 06:56:21;;;;;;;16.83;15.10;;;;;;;16.55;77.06;99033.98;531746;1089;116606;-64
2021/08/05 07:06:28;;;;;;;14.77;13.37;;;;;;;16.67;76.59;99035.41;532398;1088;117054;-70
2021/08/05 07:16:34;;;;;;;10.30;9.30;;;;;;;17.07;76.40;99027.14;531575;1088;116621;-71
2021/08/05 07:26:41;;;;;;;10.93;9.73;;;;;;;17.64;75.38;99018.72;532458;1089;117445;-68
2021/08/05 07:36:48;;;;;;;9.70;7.50;;;;;;;18.17;74.02;99013.30;532496;1088;116623;-62
2021/08/05 07:46:55;;;;;;;5.53;5.03;;;;;;;18.63;71.98;99014.70;531709;1089;116290;-66
2021/08/05 07:57:02;;;;;;;5.37;4.37;;;;;;;18.58;71.42;99012.57;532489;1087;117784;-67
2021/08/05 08:07:09;;;;;;;4.37;4.07;;;;;;;18.75;71.44;99008.06;532447;1087;115929;-67
2021/08/05 08:17:16;;;;;;;4.07;3.77;;;;;;;19.42;69.68;98992.91;531822;1088;117102;-63
2021/08/05 08:27:23;;;;;;;4.30;4.00;;;;;;;19.91;68.29;98979.55;532505;1089;116689;-63
2021/08/05 08:37:30;;;;;;;3.50;3.23;;;;;;;20.19;66.89;98977.27;527015;1089;116893;-63
2021/08/05 08:47:39;;;;;;;3.50;3.20;;;;;;;20.95;65.68;98968.57;532513;1089;116798;-63
2021/08/05 08:57:46;;;;;;;4.00;3.60;;;;;;;21.06;64.27;98980.63;532544;1088;116362;-64
2021/08/05 09:07:54;;;;;;;3.08;2.75;;;;;;;21.42;63.57;98969.23;513961;1089;10001740;-60
2021/08/05 09:18:02;;;;;;;3.20;3.00;;;;;;;20.94;62.30;98985.56;532437;1089;116477;-61
2021/08/05 09:28:19;;;;;;;3.53;3.33;;;;;;;19.90;62.68;98992.06;532455;1088;115989;-62
2021/08/05 09:38:27;;;;;;;3.80;3.50;;;;;;;19.57;63.84;98990.38;532371;1089;116266;-61
2021/08/05 09:48:39;;;;;;;3.10;2.80;;;;;;;19.72;63.47;98978.98;532482;1088;116223;-65
2021/08/05 09:58:46;;;;;;;4.40;3.15;;;;;;;19.87;63.04;98974.58;531778;1090;116380;-66
2021/08/05 10:08:55;;;;;;;3.58;3.28;;;;;;;20.27;62.24;98971.89;532571;1090;116413;-63
2021/08/05 10:19:02;;;;;;;5.53;3.53;;;;;;;20.40;62.25;98955.31;532507;1089;116422;-63
2021/08/05 10:29:10;;;;;;;4.63;3.93;;;;;;;20.26;61.29;98951.58;531801;1089;116859;-63
2021/08/05 10:39:18;;;;;;;3.78;3.13;;;;;;;20.53;60.94;98946.70;523445;1088;10001615;-67
2021/08/05 10:49:26;;;;;;;6.03;2.93;;;;;;;20.76;60.08;98947.70;532471;1089;116450;-67
2021/08/05 10:59:33;;;;;;;3.05;2.18;;;;;;;21.10;59.00;98938.39;532482;1088;116503;-69
2021/08/05 11:09:40;;;;;;;5.50;3.10;;;;;;;20.82;57.90;98917.64;532466;1088;116114;-68
2021/08/05 11:20:10;;;;;;;2.80;2.60;;;;;;;20.54;58.03;98900.36;531636;1090;116323;-68
2021/08/05 11:30:47;;;;;;;7.00;3.23;;;;;;;20.35;58.17;98895.55;532313;1088;115902;-68
2021/08/05 11:40:55;;;;;;;3.75;2.93;;;;;;;20.43;59.36;98884.78;531740;1088;116847;-68
2021/08/05 11:51:04;;;;;;;3.70;3.40;;;;;;;20.25;59.08;98866.45;532488;1088;116055;-67
2021/08/05 12:01:15;;;;;;;4.67;3.40;;;;;;;19.81;58.99;98875.89;532451;1088;116291;-67
2021/08/05 12:11:24;;;;;;;4.40;4.00;;;;;;;19.36;59.61;98855.16;531760;1088;116498;-67
2021/08/05 12:21:32;;;;;;;3.87;3.50;;;;;;;19.06;60.22;98838.16;529253;1088;116265;-67
2021/08/05 12:31:40;;;;;;;3.70;3.40;;;;;;;19.06;61.46;98824.86;531415;1089;117163;-67
2021/08/05 12:41:49;;;;;;;3.17;2.97;;;;;;;18.66;61.21;98816.80;532504;1088;116912;-68
2021/08/05 12:52:00;;;;;;;4.30;3.90;;;;;;;18.34;62.24;98798.09;532562;1089;116423;-67
2021/08/05 13:02:08;;;;;;;5.43;4.40;;;;;;;18.24;63.52;98797.44;531746;1088;116358;-67
2021/08/05 13:12:25;;;;;;;3.97;3.67;;;;;;;18.10;64.42;98793.63;532504;1088;116916;-67
2021/08/05 13:22:42;;;;;;;5.13;3.80;;;;;;;18.15;65.34;98775.38;531785;1090;115991;-66
2021/08/05 13:32:51;;;;;;;3.83;3.53;;;;;;;18.18;65.64;98764.41;532511;1088;116432;-67
2021/08/05 13:42:57;;;;;;;;;;;;;;;17.93;65.28;98751.11;532582;1089;116349;-67
2021/08/05 13:53:05;;;;;;;;;;;;;;;17.80;66.53;98738.33;526133;1088;102891;-69
2021/08/05 14:03:13;;;;;;;5.30;4.67;;;;;;;17.70;67.05;98740.31;532877;1089;102081;-67
2021/08/05 14:13:20;;;;;;;4.93;4.43;;;;;;;17.51;68.31;98734.34;532642;1089;116520;-61
2021/08/05 14:23:27;;;;;;;5.10;4.60;;;;;;;17.55;69.09;98713.63;532586;1089;116270;-70
2021/08/05 14:33:36;;;;;;;6.30;5.60;;;;;;;17.64;69.35;98697.52;532591;1089;116025;-67
2021/08/05 14:43:43;;;;;;;6.40;5.87;;;;;;;17.49;70.10;98693.88;531808;1088;117165;-61
2021/08/05 14:53:50;;;;;;;7.50;5.80;;;;;;;17.28;70.34;98681.08;523535;1089;10001355;-72
2021/08/05 15:03:58;;;;;;;6.50;5.90;;;;;;;17.15;70.98;98676.27;532427;1089;117354;-66
2021/08/05 15:14:05;;;;;;;6.13;5.53;;;;;;;17.01;71.30;98667.13;531659;1089;116485;-66
2021/08/05 15:24:12;;;;;;;6.23;5.23;;;;;;;16.74;71.73;98669.83;531534;1089;116254;-65
2021/08/05 15:34:19;;;;;;;5.93;5.43;;;;;;;16.58;72.39;98652.05;532407;1088;116273;-62
2021/08/05 15:44:29;;;;;;;6.07;5.67;;;;;;;16.53;73.30;98641.12;532484;1089;116048;-67
2021/08/05 15:54:35;;;;;;;5.77;5.27;;;;;;;16.39;73.29;98640.74;528205;1089;116441;-67
2021/08/05 16:04:42;;;;;;;5.90;5.47;;;;;;;16.12;74.23;98631.18;531681;1089;116998;-66
2021/08/05 16:14:49;;;;;;;7.03;6.43;;;;;;;16.09;74.96;98612.94;532406;1089;116180;-66
2021/08/05 16:24:56;;;;;;;6.43;5.93;;;;;;;15.91;75.38;98597.13;532321;1089;116572;-66
2021/08/05 16:35:23;;;;;;;5.73;5.27;;;;;;;15.76;75.82;98587.09;531400;1088;116747;-66
2021/08/05 16:45:35;;;;;;;6.37;5.87;;;;;;;15.64;76.07;98573.31;523046;1089;116205;-68
2021/08/05 16:55:54;;;;;;;7.98;7.28;;;;;;;15.52;76.32;98561.31;531691;1089;117907;-67
2021/08/05 17:06:02;;;;;;;6.73;6.10;;;;;;;15.38;76.74;98546.86;523277;1088;10001037;-59
2021/08/05 17:16:09;;;;;;;7.88;7.23;;;;;;;15.26;77.47;98544.47;532470;1088;116188;-66
2021/08/05 17:26:16;;;;;;;7.73;7.13;;;;;;;15.24;78.01;98546.44;531849;1089;115852;-64
2021/08/05 17:36:23;;;;;;;8.17;7.47;;;;;;;15.17;78.02;98536.60;528653;1090;117053;-63
2021/08/05 17:46:30;;;;;;;8.57;7.87;;;;;;;15.06;78.59;98524.47;531720;1088;116102;-61
2021/08/05 17:56:38;;;;;;;7.70;7.10;;;;;;;14.95;78.60;98526.38;532494;1089;116743;-64
2021/08/05 18:40:38;;;;;;;9.33;8.63;;;;;;;14.67;80.22;98491.25;515131;1089;117219;-63
2021/08/05 18:50:51;;;;;;;8.97;8.27;;;;;;;14.63;80.36;98474.88;515081;1088;117551;-62
2021/08/05 19:00:57;;;;;;;8.03;7.33;;;;;;;14.60;80.56;98455.84;515086;1088;116369;-65
2021/08/05 19:11:04;;;;;;;8.23;7.63;;;;;;;14.55;80.92;98425.45;515246;1089;116891;-65
2021/08/05 19:21:11;;;;;;;8.95;8.25;;;;;;;14.52;81.28;98412.56;515488;1090;117127;-66
2021/08/05 19:31:17;;;;;;;8.03;7.43;;;;;;;14.51;81.41;98405.62;515038;1088;117429;-66
2021/08/05 19:41:24;;;;;;;8.73;8.03;;;;;;;14.49;81.70;98378.54;514893;1089;116489;-66
2021/08/05 19:51:31;;;;;;;10.23;9.43;;;;;;;14.50;82.13;98374.91;518325;1088;116268;-66
2021/08/05 20:01:38;;;;;;;8.70;8.00;;;;;;;14.56;82.02;98361.07;514524;1089;117258;-66
2021/08/05 20:11:45;;;;;;;8.27;7.57;;;;;;;14.56;82.19;98352.34;515429;1088;116181;-66
2021/08/05 20:21:51;;;;;;;7.77;7.07;;;;;;;14.57;82.36;98349.52;515041;1090;117407;-64
2021/08/05 20:31:58;;;;;;;7.83;7.13;;;;;;;14.57;82.40;98346.88;515288;1089;116287;-66
2021/08/05 20:42:05;;;;;;;7.30;6.50;;;;;;;14.59;82.57;98336.17;515498;1088;116917;-65
2021/08/05 20:52:12;;;;;;;8.05;7.35;;;;;;;14.58;82.80;98321.30;515648;1089;116660;-66
2021/08/05 21:02:19;;;;;;;6.77;6.27;;;;;;;14.56;82.82;98349.69;515899;1088;117062;-66
2021/08/05 21:12:27;;;;;;;5.70;4.85;;;;;;;14.61;82.42;98342.13;515343;1089;116299;-66
2021/08/05 21:22:32;;;;;;;;;;;;;;;14.65;82.64;98332.89;514360;1090;116568;-62
2021/08/05 21:32:39;;;;;;;5.60;5.20;;;;;;;14.68;82.60;98310.63;517493;1088;102559;-60
2021/08/05 21:42:45;;;;;;;6.70;5.57;;;;;;;14.72;82.69;98309.38;528440;1089;116273;-59
2021/08/05 21:52:52;;;;;;;5.47;4.70;;;;;;;14.68;82.70;98307.98;514604;1089;117544;-59
2021/08/05 22:02:59;;;;;;;5.07;4.67;;;;;;;14.66;82.81;98287.02;514818;1088;116895;-60
2021/08/05 22:13:06;;;;;;;4.77;4.40;;;;;;;14.57;82.84;98270.28;514820;1088;116554;-61
2021/08/05 22:23:13;;;;;;;5.03;4.57;;;;;;;14.49;83.18;98259.69;514630;1090;117058;-60
2021/08/05 22:33:20;;;;;;;4.57;4.17;;;;;;;14.43;83.83;98239.17;515720;1089;117526;-60
2021/08/05 22:43:28;;;;;;;5.30;4.80;;;;;;;14.40;84.44;98235.02;514644;1090;116758;-59
2021/08/05 22:53:34;;;;;;;5.00;4.43;;;;;;;14.40;84.22;98213.90;515255;1090;117052;-59
2021/08/05 23:03:41;;;;;;;5.10;4.63;;;;;;;14.35;84.35;98210.91;515723;1088;116106;-68
2021/08/05 23:13:48;;;;;;;4.07;3.77;;;;;;;14.25;84.29;98189.88;530738;1089;116061;-69
2021/08/05 23:23:54;;;;;;;4.75;4.35;;;;;;;14.23;84.54;98175.20;532510;1089;115904;-69
2021/08/05 23:34:01;;;;;;;4.23;3.83;;;;;;;14.17;85.12;98159.98;530012;1089;116836;-69
2021/08/05 23:44:12;;;;;;;5.33;4.83;;;;;;;14.08;85.06;98159.95;515618;1090;117118;-68
2021/08/05 23:54:20;;;;;;;4.03;3.73;;;;;;;14.00;85.51;98139.60;532541;1088;116805;-69
